sensor_id;sensor_type;location;lat;lon;timestamp;pressure;altitude;pressure_sealevel;temperature;humidity
73383;BME280;61600;48.126;11.542;2024-01-11T00:00:57;96446.53;;;-1.14;68.52
73383;BME280;61600;48.126;11.542;2024-01-11T00:03:24;96452.06;;;-1.16;68.54
73383;BME280;61600;48.126;11.542;2024-01-11T00:05:50;96449.16;;;-1.21;68.90
73383;BME280;61600;48.126;11.542;2024-01-11T00:08:16;96450.44;;;-1.17;68.92
73383;BME280;61600;48.126;11.542;2024-01-11T00:10:42;96448.59;;;-1.16;68.69
73383;BME280;61600;48.126;11.542;2024-01-11T00:13:07;96443.25;;;-1.16;68.71
73383;BME280;61600;48.126;11.542;2024-01-11T00:15:33;96447.44;;;-1.07;67.71
73383;BME280;61600;48.126;11.542;2024-01-11T00:17:58;96436.69;;;-1.14;67.76
73383;BME280;61600;48.126;11.542;2024-01-11T00:20:24;96429.84;;;-1.23;68.65
73383;BME280;61600;48.126;11.542;2024-01-11T00:22:50;96434.94;;;-1.28;68.23
73383;BME280;61600;48.126;11.542;2024-01-11T00:25:15;96451.84;;;-1.21;69.25
73383;BME280;61600;48.126;11.542;2024-01-11T00:27:41;96450.09;;;-1.07;69.18
73383;BME280;61600;48.126;11.542;2024-01-11T00:30:07;96445.22;;;-1.25;68.23
73383;BME280;61600;48.126;11.542;2024-01-11T00:32:33;96456.34;;;-1.21;68.86
73383;BME280;61600;48.126;11.542;2024-01-11T00:34:58;96461.22;;;-1.25;68.98
73383;BME280;61600;48.126;11.542;2024-01-11T00:37:24;96449.34;;;-1.22;69.61
73383;BME280;61600;48.126;11.542;2024-01-11T00:39:50;96442.66;;;-1.12;69.42
73383;BME280;61600;48.126;11.542;2024-01-11T00:42:16;96445.38;;;-1.05;68.65
73383;BME280;61600;48.126;11.542;2024-01-11T00:44:41;96437.75;;;-1.08;69.18
73383;BME280;61600;48.126;11.542;2024-01-11T00:47:07;96449.28;;;-1.29;68.48
73383;BME280;61600;48.126;11.542;2024-01-11T00:49:32;96441.84;;;-1.33;68.54
73383;BME280;61600;48.126;11.542;2024-01-11T00:51:58;96450.75;;;-1.26;69.03
73383;BME280;61600;48.126;11.542;2024-01-11T00:54:24;96444.72;;;-1.14;69.41
73383;BME280;61600;48.126;11.542;2024-01-11T00:56:50;96451.94;;;-1.08;69.29
73383;BME280;61600;48.126;11.542;2024-01-11T00:59:15;96452.38;;;-1.04;69.16
73383;BME280;61600;48.126;11.542;2024-01-11T01:01:52;96447.25;;;-1.06;69.03
73383;BME280;61600;48.126;11.542;2024-01-11T01:04:17;96442.88;;;-1.13;69.21
73383;BME280;61600;48.126;11.542;2024-01-11T01:06:43;96462.03;;;-1.03;68.88
73383;BME280;61600;48.126;11.542;2024-01-11T01:09:08;96457.16;;;-1.21;68.80
73383;BME280;61600;48.126;11.542;2024-01-11T01:11:34;96463.63;;;-1.09;68.70
73383;BME280;61600;48.126;11.542;2024-01-11T01:14:00;96468.91;;;-1.15;68.73
73383;BME280;61600;48.126;11.542;2024-01-11T01:16:27;96458.91;;;-1.34;68.67
73383;BME280;61600;48.126;11.542;2024-01-11T01:18:53;96457.34;;;-1.43;68.56
73383;BME280;61600;48.126;11.542;2024-01-11T01:21:18;96453.13;;;-1.38;69.73
73383;BME280;61600;48.126;11.542;2024-01-11T01:23:44;96465.75;;;-1.25;69.21
73383;BME280;61600;48.126;11.542;2024-01-11T01:26:09;96459.53;;;-1.32;69.66
73383;BME280;61600;48.126;11.542;2024-01-11T01:28:35;96462.84;;;-1.30;69.17
73383;BME280;61600;48.126;11.542;2024-01-11T01:31:01;96471.78;;;-1.38;69.94
73383;BME280;61600;48.126;11.542;2024-01-11T01:33:27;96465.31;;;-1.50;69.91
73383;BME280;61600;48.126;11.542;2024-01-11T01:35:52;96469.81;;;-1.51;69.72
73383;BME280;61600;48.126;11.542;2024-01-11T01:38:18;96472.84;;;-1.54;69.75
73383;BME280;61600;48.126;11.542;2024-01-11T01:40:44;96475.47;;;-1.39;69.88
73383;BME280;61600;48.126;11.542;2024-01-11T01:43:09;96474.53;;;-1.31;70.13
73383;BME280;61600;48.126;11.542;2024-01-11T01:45:35;96476.66;;;-1.63;69.38
73383;BME280;61600;48.126;11.542;2024-01-11T01:48:01;96493.38;;;-1.54;69.52
73383;BME280;61600;48.126;11.542;2024-01-11T01:50:27;96480.53;;;-1.65;69.47
73383;BME280;61600;48.126;11.542;2024-01-11T01:52:55;96486.75;;;-1.58;70.40
73383;BME280;61600;48.126;11.542;2024-01-11T01:55:22;96479.63;;;-1.72;70.25
73383;BME280;61600;48.126;11.542;2024-01-11T01:57:50;96485.84;;;-1.65;71.18
73383;BME280;61600;48.126;11.542;2024-01-11T02:00:16;96487.44;;;-1.71;70.02
73383;BME280;61600;48.126;11.542;2024-01-11T02:02:44;96494.88;;;-1.66;70.57
73383;BME280;61600;48.126;11.542;2024-01-11T02:05:14;96489.38;;;-1.79;69.67
73383;BME280;61600;48.126;11.542;2024-01-11T02:07:40;96498.22;;;-1.79;70.60
73383;BME280;61600;48.126;11.542;2024-01-11T02:10:07;96498.59;;;-1.82;69.79
73383;BME280;61600;48.126;11.542;2024-01-11T02:12:35;96497.44;;;-1.94;70.14
73383;BME280;61600;48.126;11.542;2024-01-11T02:15:01;96498.25;;;-1.93;70.30
73383;BME280;61600;48.126;11.542;2024-01-11T02:17:28;96496.41;;;-1.93;70.81
73383;BME280;61600;48.126;11.542;2024-01-11T02:19:54;96483.72;;;-1.91;71.04
73383;BME280;61600;48.126;11.542;2024-01-11T02:22:32;96498.69;;;-1.90;70.96
73383;BME280;61600;48.126;11.542;2024-01-11T02:24:57;96487.88;;;-2.03;70.59
73383;BME280;61600;48.126;11.542;2024-01-11T02:27:23;96484.75;;;-1.92;70.67
73383;BME280;61600;48.126;11.542;2024-01-11T02:29:49;96483.16;;;-1.86;70.58
73383;BME280;61600;48.126;11.542;2024-01-11T02:32:15;96483.66;;;-1.97;70.20
73383;BME280;61600;48.126;11.542;2024-01-11T02:34:42;96500.56;;;-2.05;70.47
73383;BME280;61600;48.126;11.542;2024-01-11T02:37:08;96495.47;;;-1.85;70.97
73383;BME280;61600;48.126;11.542;2024-01-11T02:39:34;96481.75;;;-1.82;70.96
73383;BME280;61600;48.126;11.542;2024-01-11T02:42:00;96480.53;;;-1.65;70.91
73383;BME280;61600;48.126;11.542;2024-01-11T02:44:26;96480.69;;;-1.52;70.26
73383;BME280;61600;48.126;11.542;2024-01-11T02:46:52;96472.28;;;-1.49;70.11
73383;BME280;61600;48.126;11.542;2024-01-11T02:49:17;96481.56;;;-1.45;70.20
73383;BME280;61600;48.126;11.542;2024-01-11T02:51:43;96482.31;;;-1.51;69.82
73383;BME280;61600;48.126;11.542;2024-01-11T02:54:09;96470.19;;;-1.54;69.46
73383;BME280;61600;48.126;11.542;2024-01-11T02:56:35;96477.28;;;-1.61;69.35
73383;BME280;61600;48.126;11.542;2024-01-11T02:59:01;96471.28;;;-1.48;69.99
73383;BME280;61600;48.126;11.542;2024-01-11T03:01:27;96451.34;;;-1.52;69.45
73383;BME280;61600;48.126;11.542;2024-01-11T03:03:53;96466.91;;;-1.56;69.46
73383;BME280;61600;48.126;11.542;2024-01-11T03:06:20;96449.72;;;-1.68;69.51
73383;BME280;61600;48.126;11.542;2024-01-11T03:08:48;96455.06;;;-1.68;69.26
73383;BME280;61600;48.126;11.542;2024-01-11T03:11:14;96451.84;;;-1.63;69.21
73383;BME280;61600;48.126;11.542;2024-01-11T03:13:40;96471.28;;;-1.48;68.62
73383;BME280;61600;48.126;11.542;2024-01-11T03:16:06;96448.22;;;-1.56;68.67
73383;BME280;61600;48.126;11.542;2024-01-11T03:18:33;96468.53;;;-1.55;68.99
73383;BME280;61600;48.126;11.542;2024-01-11T03:20:59;96447.28;;;-1.69;68.72
73383;BME280;61600;48.126;11.542;2024-01-11T03:23:25;96451.78;;;-1.48;68.01
73383;BME280;61600;48.126;11.542;2024-01-11T03:25:54;96440.69;;;-2.24;67.59
73383;BME280;61600;48.126;11.542;2024-01-11T03:28:21;96436.75;;;-2.28;70.88
73383;BME280;61600;48.126;11.542;2024-01-11T03:30:48;96449.72;;;-1.89;70.93
73383;BME280;61600;48.126;11.542;2024-01-11T03:33:17;96450.50;;;-1.74;70.47
73383;BME280;61600;48.126;11.542;2024-01-11T03:35:44;96424.44;;;-1.93;70.11
73383;BME280;61600;48.126;11.542;2024-01-11T03:38:13;96448.69;;;-1.88;70.29
73383;BME280;61600;48.126;11.542;2024-01-11T03:40:39;96442.38;;;-1.87;70.52
73383;BME280;61600;48.126;11.542;2024-01-11T03:43:05;96436.44;;;-1.82;70.21
73383;BME280;61600;48.126;11.542;2024-01-11T03:45:31;96427.63;;;-1.83;70.20
73383;BME280;61600;48.126;11.542;2024-01-11T03:48:17;96431.50;;;-1.85;69.72
73383;BME280;61600;48.126;11.542;2024-01-11T03:50:43;96427.16;;;-1.86;69.78
73383;BME280;61600;48.126;11.542;2024-01-11T03:53:11;96444.28;;;-1.60;69.35
73383;BME280;61600;48.126;11.542;2024-01-11T03:55:40;96409.50;;;-1.73;68.40
73383;BME280;61600;48.126;11.542;2024-01-11T03:58:09;96424.31;;;-1.85;68.85
73383;BME280;61600;48.126;11.542;2024-01-11T04:00:40;96418.28;;;-1.93;68.47
73383;BME280;61600;48.126;11.542;2024-01-11T04:03:07;96429.78;;;-1.72;68.93
73383;BME280;61600;48.126;11.542;2024-01-11T04:05:33;96422.88;;;-1.87;69.57
73383;BME280;61600;48.126;11.542;2024-01-11T04:07:59;96431.06;;;-1.68;69.55
73383;BME280;61600;48.126;11.542;2024-01-11T04:10:25;96430.75;;;-1.58;69.21
73383;BME280;61600;48.126;11.542;2024-01-11T04:12:56;96397.94;;;-1.80;69.15
73383;BME280;61600;48.126;11.542;2024-01-11T04:15:22;96405.25;;;-2.03;69.28
73383;BME280;61600;48.126;11.542;2024-01-11T04:17:49;96411.78;;;-2.41;70.75
73383;BME280;61600;48.126;11.542;2024-01-11T04:20:18;96421.59;;;-1.91;70.88
73383;BME280;61600;48.126;11.542;2024-01-11T04:22:44;96434.78;;;-2.05;70.63
73383;BME280;61600;48.126;11.542;2024-01-11T04:25:12;96433.91;;;-1.90;70.56
73383;BME280;61600;48.126;11.542;2024-01-11T04:27:42;96438.50;;;-1.84;70.53
73383;BME280;61600;48.126;11.542;2024-01-11T04:30:10;96409.94;;;-1.90;70.27
73383;BME280;61600;48.126;11.542;2024-01-11T04:32:38;96439.44;;;-1.92;67.53
73383;BME280;61600;48.126;11.542;2024-01-11T04:35:05;96423.53;;;-2.00;68.07
73383;BME280;61600;48.126;11.542;2024-01-11T04:37:39;96433.50;;;-2.09;70.57
73383;BME280;61600;48.126;11.542;2024-01-11T04:40:06;96452.13;;;-1.94;70.46
73383;BME280;61600;48.126;11.542;2024-01-11T04:42:32;96451.81;;;-1.84;70.41
73383;BME280;61600;48.126;11.542;2024-01-11T04:44:58;96438.41;;;-1.91;70.67
73383;BME280;61600;48.126;11.542;2024-01-11T04:47:24;96444.16;;;-1.73;70.18
73383;BME280;61600;48.126;11.542;2024-01-11T04:49:50;96433.34;;;-1.86;70.73
73383;BME280;61600;48.126;11.542;2024-01-11T04:52:18;96449.59;;;-1.81;70.54
73383;BME280;61600;48.126;11.542;2024-01-11T04:54:45;96451.63;;;-1.62;70.59
73383;BME280;61600;48.126;11.542;2024-01-11T04:57:15;96450.75;;;-1.69;70.26
73383;BME280;61600;48.126;11.542;2024-01-11T04:59:43;96439.72;;;-1.66;70.78
73383;BME280;61600;48.126;11.542;2024-01-11T05:02:10;96437.13;;;-1.59;70.70
73383;BME280;61600;48.126;11.542;2024-01-11T05:04:39;96432.53;;;-1.65;70.73
73383;BME280;61600;48.126;11.542;2024-01-11T05:07:06;96442.25;;;-1.58;69.86
73383;BME280;61600;48.126;11.542;2024-01-11T05:09:32;96426.13;;;-1.71;70.17
73383;BME280;61600;48.126;11.542;2024-01-11T05:12:02;96420.22;;;-1.66;70.67
73383;BME280;61600;48.126;11.542;2024-01-11T05:14:30;96432.84;;;-1.54;70.42
73383;BME280;61600;48.126;11.542;2024-01-11T05:16:59;96431.50;;;-1.64;69.63
73383;BME280;61600;48.126;11.542;2024-01-11T05:19:26;96450.31;;;-1.51;69.81
73383;BME280;61600;48.126;11.542;2024-01-11T05:21:51;96444.28;;;-1.60;69.22
73383;BME280;61600;48.126;11.542;2024-01-11T05:24:17;96439.19;;;-1.55;68.87
73383;BME280;61600;48.126;11.542;2024-01-11T05:26:43;96431.13;;;-1.61;69.15
73383;BME280;61600;48.126;11.542;2024-01-11T05:29:08;96435.47;;;-1.60;68.97
73383;BME280;61600;48.126;11.542;2024-01-11T05:31:34;96437.06;;;-1.66;68.39
73383;BME280;61600;48.126;11.542;2024-01-11T05:34:00;96430.44;;;-1.70;69.25
73383;BME280;61600;48.126;11.542;2024-01-11T05:36:26;96427.00;;;-1.85;69.13
73383;BME280;61600;48.126;11.542;2024-01-11T05:38:51;96448.69;;;-1.88;68.77
73383;BME280;61600;48.126;11.542;2024-01-11T05:41:17;96456.44;;;-1.93;69.25
73383;BME280;61600;48.126;11.542;2024-01-11T05:43:42;96446.94;;;-1.81;69.52
73383;BME280;61600;48.126;11.542;2024-01-11T05:46:08;96460.50;;;-1.76;69.25
73383;BME280;61600;48.126;11.542;2024-01-11T05:48:35;96457.31;;;-1.86;69.96
73383;BME280;61600;48.126;11.542;2024-01-11T05:51:00;96452.03;;;-2.01;69.63
73383;BME280;61600;48.126;11.542;2024-01-11T05:53:26;96447.53;;;-2.00;69.42
73383;BME280;61600;48.126;11.542;2024-01-11T05:55:54;96467.75;;;-1.91;69.51
73383;BME280;61600;48.126;11.542;2024-01-11T05:58:20;96469.03;;;-1.87;69.08
73383;BME280;61600;48.126;11.542;2024-01-11T06:00:47;96465.31;;;-1.86;69.56
73383;BME280;61600;48.126;11.542;2024-01-11T06:03:12;96476.56;;;-1.90;69.21
73383;BME280;61600;48.126;11.542;2024-01-11T06:05:39;96460.28;;;-1.95;69.32
73383;BME280;61600;48.126;11.542;2024-01-11T06:08:05;96472.50;;;-1.86;69.87
73383;BME280;61600;48.126;11.542;2024-01-11T06:10:40;96451.38;;;-1.88;69.97
73383;BME280;61600;48.126;11.542;2024-01-11T06:13:06;96452.66;;;-2.34;70.33
73383;BME280;61600;48.126;11.542;2024-01-11T06:15:32;96476.59;;;-2.20;70.45
73383;BME280;61600;48.126;11.542;2024-01-11T06:17:58;96473.91;;;-1.90;71.00
73383;BME280;61600;48.126;11.542;2024-01-11T06:20:25;96482.00;;;-1.98;70.20
73383;BME280;61600;48.126;11.542;2024-01-11T06:22:51;96477.97;;;-2.09;70.13
73383;BME280;61600;48.126;11.542;2024-01-11T06:25:17;96488.69;;;-1.88;71.05
73383;BME280;61600;48.126;11.542;2024-01-11T06:27:44;96472.28;;;-2.06;70.73
73383;BME280;61600;48.126;11.542;2024-01-11T06:30:11;96500.09;;;-1.94;70.87
73383;BME280;61600;48.126;11.542;2024-01-11T06:32:37;96490.91;;;-1.91;70.20
73383;BME280;61600;48.126;11.542;2024-01-11T06:35:03;96478.66;;;-1.86;70.31
73383;BME280;61600;48.126;11.542;2024-01-11T06:37:29;96482.84;;;-1.98;69.59
73383;BME280;61600;48.126;11.542;2024-01-11T06:39:55;96485.19;;;-1.88;69.44
73383;BME280;61600;48.126;11.542;2024-01-11T06:42:21;96489.00;;;-1.97;69.10
73383;BME280;61600;48.126;11.542;2024-01-11T06:44:47;96498.13;;;-1.85;69.70
73383;BME280;61600;48.126;11.542;2024-01-11T06:47:12;96497.78;;;-1.97;69.37
73383;BME280;61600;48.126;11.542;2024-01-11T06:49:39;96508.81;;;-2.00;69.09
73383;BME280;61600;48.126;11.542;2024-01-11T06:52:07;96521.38;;;-1.79;69.82
73383;BME280;61600;48.126;11.542;2024-01-11T06:54:32;96531.88;;;-1.78;69.03
73383;BME280;61600;48.126;11.542;2024-01-11T06:57:02;96531.25;;;-1.80;69.48
73383;BME280;61600;48.126;11.542;2024-01-11T06:59:33;96536.28;;;-1.85;69.24
73383;BME280;61600;48.126;11.542;2024-01-11T07:02:00;96539.06;;;-1.93;68.60
73383;BME280;61600;48.126;11.542;2024-01-11T07:04:35;96527.94;;;-1.96;68.98
73383;BME280;61600;48.126;11.542;2024-01-11T07:07:02;96502.91;;;-1.81;69.40
73383;BME280;61600;48.126;11.542;2024-01-11T07:09:30;96513.28;;;-1.71;68.49
73383;BME280;61600;48.126;11.542;2024-01-11T07:12:01;96530.66;;;-1.75;68.40
73383;BME280;61600;48.126;11.542;2024-01-11T07:14:32;96536.91;;;-1.68;68.87
73383;BME280;61600;48.126;11.542;2024-01-11T07:17:03;96516.88;;;-1.79;68.48
73383;BME280;61600;48.126;11.542;2024-01-11T07:19:29;96529.28;;;-1.71;68.42
73383;BME280;61600;48.126;11.542;2024-01-11T07:21:55;96530.06;;;-2.07;66.55
73383;BME280;61600;48.126;11.542;2024-01-11T07:24:21;96509.63;;;-1.85;68.73
73383;BME280;61600;48.126;11.542;2024-01-11T07:26:48;96540.00;;;-1.65;68.24
73383;BME280;61600;48.126;11.542;2024-01-11T07:29:14;96524.22;;;-1.66;68.19
73383;BME280;61600;48.126;11.542;2024-01-11T07:31:42;96520.72;;;-1.67;68.10
73383;BME280;61600;48.126;11.542;2024-01-11T07:34:20;96522.69;;;-1.90;68.95
73383;BME280;61600;48.126;11.542;2024-01-11T07:36:46;96530.22;;;-1.79;68.38
73383;BME280;61600;48.126;11.542;2024-01-11T07:39:15;96523.03;;;-1.78;66.87
73383;BME280;61600;48.126;11.542;2024-01-11T07:41:52;96518.75;;;-1.58;67.62
73383;BME280;61600;48.126;11.542;2024-01-11T07:44:19;96515.88;;;-1.78;67.22
73383;BME280;61600;48.126;11.542;2024-01-11T07:46:53;96517.06;;;-1.66;68.01
73383;BME280;61600;48.126;11.542;2024-01-11T07:49:26;96526.03;;;-2.03;68.46
73383;BME280;61600;48.126;11.542;2024-01-11T07:51:53;96551.81;;;-1.74;68.81
73383;BME280;61600;48.126;11.542;2024-01-11T07:54:19;96538.34;;;-1.87;68.24
73383;BME280;61600;48.126;11.542;2024-01-11T07:56:45;96551.34;;;-1.63;69.15
73383;BME280;61600;48.126;11.542;2024-01-11T07:59:17;96531.81;;;-1.48;68.97
73383;BME280;61600;48.126;11.542;2024-01-11T08:01:43;96545.31;;;-1.50;68.50
73383;BME280;61600;48.126;11.542;2024-01-11T08:04:09;96551.44;;;-1.71;67.82
73383;BME280;61600;48.126;11.542;2024-01-11T08:06:36;96559.50;;;-1.64;68.71
73383;BME280;61600;48.126;11.542;2024-01-11T08:09:03;96561.81;;;-1.61;69.26
73383;BME280;61600;48.126;11.542;2024-01-11T08:11:30;96555.28;;;-1.59;68.92
73383;BME280;61600;48.126;11.542;2024-01-11T08:13:57;96553.00;;;-1.40;68.96
73383;BME280;61600;48.126;11.542;2024-01-11T08:16:22;96552.03;;;-1.18;68.77
73383;BME280;61600;48.126;11.542;2024-01-11T08:18:48;96558.66;;;-1.14;68.00
73383;BME280;61600;48.126;11.542;2024-01-11T08:21:14;96556.75;;;-1.20;68.11
73383;BME280;61600;48.126;11.542;2024-01-11T08:23:40;96564.97;;;-1.15;67.63
73383;BME280;61600;48.126;11.542;2024-01-11T08:26:12;96558.38;;;-1.19;68.16
73383;BME280;61600;48.126;11.542;2024-01-11T08:28:39;96548.66;;;-1.27;68.12
73383;BME280;61600;48.126;11.542;2024-01-11T08:31:06;96556.03;;;-1.29;66.24
73383;BME280;61600;48.126;11.542;2024-01-11T08:33:34;96557.13;;;-1.23;67.01
73383;BME280;61600;48.126;11.542;2024-01-11T08:36:04;96561.75;;;-1.32;66.61
73383;BME280;61600;48.126;11.542;2024-01-11T08:38:30;96568.13;;;-1.47;67.90
73383;BME280;61600;48.126;11.542;2024-01-11T08:40:56;96564.84;;;-1.28;68.51
73383;BME280;61600;48.126;11.542;2024-01-11T08:43:21;96576.53;;;-1.29;68.21
73383;BME280;61600;48.126;11.542;2024-01-11T08:45:47;96571.00;;;-1.49;66.96
73383;BME280;61600;48.126;11.542;2024-01-11T08:48:13;96585.19;;;-1.27;68.09
73383;BME280;61600;48.126;11.542;2024-01-11T08:50:40;96584.75;;;-1.31;68.87
73383;BME280;61600;48.126;11.542;2024-01-11T08:53:07;96603.91;;;-1.06;68.78
73383;BME280;61600;48.126;11.542;2024-01-11T08:55:33;96604.47;;;-1.11;68.57
73383;BME280;61600;48.126;11.542;2024-01-11T08:57:58;96606.06;;;-1.16;68.03
73383;BME280;61600;48.126;11.542;2024-01-11T09:00:27;96604.47;;;-1.11;68.38
73383;BME280;61600;48.126;11.542;2024-01-11T09:02:53;96607.09;;;-0.96;67.60
73383;BME280;61600;48.126;11.542;2024-01-11T09:05:19;96609.47;;;-1.01;67.67
73383;BME280;61600;48.126;11.542;2024-01-11T09:07:47;96621.75;;;-1.07;68.39
73383;BME280;61600;48.126;11.542;2024-01-11T09:10:15;96622.50;;;-0.91;68.63
73383;BME280;61600;48.126;11.542;2024-01-11T09:12:41;96628.63;;;-0.97;67.47
73383;BME280;61600;48.126;11.542;2024-01-11T09:15:07;96625.19;;;-1.13;67.06
73383;BME280;61600;48.126;11.542;2024-01-11T09:17:34;96623.31;;;-1.12;67.04
73383;BME280;61600;48.126;11.542;2024-01-11T09:20:00;96623.53;;;-1.14;67.02
73383;BME280;61600;48.126;11.542;2024-01-11T09:22:26;96628.31;;;-1.09;66.80
73383;BME280;61600;48.126;11.542;2024-01-11T09:24:52;96608.94;;;-1.32;66.25
73383;BME280;61600;48.126;11.542;2024-01-11T09:27:18;96605.59;;;-1.20;66.18
73383;BME280;61600;48.126;11.542;2024-01-11T09:29:45;96608.41;;;-1.42;67.34
73383;BME280;61600;48.126;11.542;2024-01-11T09:32:12;96620.66;;;-1.12;66.47
73383;BME280;61600;48.126;11.542;2024-01-11T09:34:38;96631.88;;;-1.38;66.09
73383;BME280;61600;48.126;11.542;2024-01-11T09:37:04;96631.00;;;-1.24;66.09
73383;BME280;61600;48.126;11.542;2024-01-11T09:39:33;96624.19;;;-1.26;65.01
73383;BME280;61600;48.126;11.542;2024-01-11T09:42:11;96636.75;;;-1.41;64.25
73383;BME280;61600;48.126;11.542;2024-01-11T09:44:37;96631.78;;;-1.44;65.51
73383;BME280;61600;48.126;11.542;2024-01-11T09:47:08;96632.78;;;-1.45;65.67
73383;BME280;61600;48.126;11.542;2024-01-11T09:49:38;96627.38;;;-1.67;65.19
73383;BME280;61600;48.126;11.542;2024-01-11T09:52:07;96615.22;;;-1.55;65.89
73383;BME280;61600;48.126;11.542;2024-01-11T09:54:37;96626.47;;;-1.59;64.68
73383;BME280;61600;48.126;11.542;2024-01-11T09:57:07;96613.00;;;-1.36;64.72
73383;BME280;61600;48.126;11.542;2024-01-11T09:59:35;96614.88;;;-1.52;65.07
73383;BME280;61600;48.126;11.542;2024-01-11T10:02:03;96592.97;;;-1.11;64.99
73383;BME280;61600;48.126;11.542;2024-01-11T10:04:30;96603.00;;;-1.13;65.03
73383;BME280;61600;48.126;11.542;2024-01-11T10:07:04;96579.19;;;-1.29;64.58
73383;BME280;61600;48.126;11.542;2024-01-11T10:09:33;96593.59;;;-1.09;64.05
73383;BME280;61600;48.126;11.542;2024-01-11T10:12:04;96572.31;;;-1.03;63.73
73383;BME280;61600;48.126;11.542;2024-01-11T10:14:30;96569.19;;;-1.06;63.60
73383;BME280;61600;48.126;11.542;2024-01-11T10:16:59;96578.09;;;-0.78;63.82
73383;BME280;61600;48.126;11.542;2024-01-11T10:19:31;96563.25;;;-1.23;63.49
73383;BME280;61600;48.126;11.542;2024-01-11T10:22:05;96568.00;;;-1.04;63.17
73383;BME280;61600;48.126;11.542;2024-01-11T10:24:32;96571.59;;;-1.11;63.52
73383;BME280;61600;48.126;11.542;2024-01-11T10:27:03;96569.75;;;-0.68;64.44
73383;BME280;61600;48.126;11.542;2024-01-11T10:29:33;96565.72;;;-0.58;64.27
73383;BME280;61600;48.126;11.542;2024-01-11T10:32:14;96551.47;;;-0.92;63.74
73383;BME280;61600;48.126;11.542;2024-01-11T10:34:49;96549.53;;;-0.77;64.18
73383;BME280;61600;48.126;11.542;2024-01-11T10:37:15;96575.84;;;-0.53;63.83
73383;BME280;61600;48.126;11.542;2024-01-11T10:39:44;96544.50;;;-0.66;63.91
73383;BME280;61600;48.126;11.542;2024-01-11T10:42:13;96562.97;;;-0.43;63.62
73383;BME280;61600;48.126;11.542;2024-01-11T10:44:46;96556.75;;;-0.50;63.99
73383;BME280;61600;48.126;11.542;2024-01-11T10:47:15;96541.94;;;-0.74;64.19
73383;BME280;61600;48.126;11.542;2024-01-11T10:49:44;96533.41;;;-0.63;64.65
73383;BME280;61600;48.126;11.542;2024-01-11T10:52:12;96550.34;;;-0.77;63.66
73383;BME280;61600;48.126;11.542;2024-01-11T10:54:39;96554.94;;;-0.71;65.39
73383;BME280;61600;48.126;11.542;2024-01-11T10:57:08;96553.91;;;-0.70;65.45
73383;BME280;61600;48.126;11.542;2024-01-11T10:59:35;96574.25;;;-0.69;65.20
73383;BME280;61600;48.126;11.542;2024-01-11T11:02:05;96574.06;;;-0.46;65.16
73383;BME280;61600;48.126;11.542;2024-01-11T11:04:40;96574.59;;;-0.78;65.17
73383;BME280;61600;48.126;11.542;2024-01-11T11:07:11;96559.13;;;-0.62;64.61
73383;BME280;61600;48.126;11.542;2024-01-11T11:09:41;96533.09;;;-0.53;64.74
73383;BME280;61600;48.126;11.542;2024-01-11T11:12:10;96552.72;;;-0.39;64.67
73383;BME280;61600;48.126;11.542;2024-01-11T11:14:41;96543.31;;;-0.35;63.72
73383;BME280;61600;48.126;11.542;2024-01-11T11:17:11;96536.41;;;-0.17;64.01
73383;BME280;61600;48.126;11.542;2024-01-11T11:19:39;96555.31;;;-0.95;64.86
73383;BME280;61600;48.126;11.542;2024-01-11T11:22:12;96539.34;;;-1.16;65.08
73383;BME280;61600;48.126;11.542;2024-01-11T11:24:39;96543.28;;;-0.63;64.94
73383;BME280;61600;48.126;11.542;2024-01-11T11:27:15;96530.97;;;-0.64;65.31
73383;BME280;61600;48.126;11.542;2024-01-11T11:30:05;96535.97;;;-0.55;65.42
73383;BME280;61600;48.126;11.542;2024-01-11T11:32:43;96537.19;;;-0.57;65.30
73383;BME280;61600;48.126;11.542;2024-01-11T11:35:12;96562.34;;;-0.66;65.34
73383;BME280;61600;48.126;11.542;2024-01-11T11:37:40;96562.50;;;-0.53;65.01
73383;BME280;61600;48.126;11.542;2024-01-11T11:40:12;96542.75;;;-0.52;65.03
73383;BME280;61600;48.126;11.542;2024-01-11T11:42:39;96562.94;;;-0.49;65.13
73383;BME280;61600;48.126;11.542;2024-01-11T11:45:06;96536.25;;;-0.71;65.39
73383;BME280;61600;48.126;11.542;2024-01-11T11:47:36;96553.78;;;-0.34;63.90
73383;BME280;61600;48.126;11.542;2024-01-11T11:50:12;96557.84;;;-0.38;64.38
73383;BME280;61600;48.126;11.542;2024-01-11T11:52:40;96559.94;;;-0.33;65.08
73383;BME280;61600;48.126;11.542;2024-01-11T11:55:09;96560.25;;;-0.49;64.18
73383;BME280;61600;48.126;11.542;2024-01-11T11:57:37;96555.94;;;-0.51;64.81
73383;BME280;61600;48.126;11.542;2024-01-11T12:00:07;96524.97;;;-0.38;64.80
73383;BME280;61600;48.126;11.542;2024-01-11T12:02:33;96544.50;;;-0.38;64.30
73383;BME280;61600;48.126;11.542;2024-01-11T12:05:04;96541.63;;;-0.36;65.12
73383;BME280;61600;48.126;11.542;2024-01-11T12:07:32;96557.34;;;-0.20;65.19
73383;BME280;61600;48.126;11.542;2024-01-11T12:09:58;96545.31;;;-0.37;64.42
73383;BME280;61600;48.126;11.542;2024-01-11T12:12:26;96546.25;;;-0.52;64.90
73383;BME280;61600;48.126;11.542;2024-01-11T12:14:53;96547.34;;;-0.46;65.27
73383;BME280;61600;48.126;11.542;2024-01-11T12:17:19;96556.06;;;-0.31;66.10
73383;BME280;61600;48.126;11.542;2024-01-11T12:19:44;96554.00;;;-0.35;66.64
73383;BME280;61600;48.126;11.542;2024-01-11T12:22:10;96542.09;;;-0.61;67.41
73383;BME280;61600;48.126;11.542;2024-01-11T12:24:36;96517.34;;;-0.41;66.89
73383;BME280;61600;48.126;11.542;2024-01-11T12:27:03;96511.50;;;-0.24;66.81
73383;BME280;61600;48.126;11.542;2024-01-11T12:29:29;96517.56;;;-0.02;66.35
73383;BME280;61600;48.126;11.542;2024-01-11T12:31:59;96513.56;;;-0.54;66.96
73383;BME280;61600;48.126;11.542;2024-01-11T12:34:28;96513.22;;;-0.44;66.62
73383;BME280;61600;48.126;11.542;2024-01-11T12:36:54;96522.44;;;-0.19;65.46
73383;BME280;61600;48.126;11.542;2024-01-11T12:39:24;96520.19;;;-0.15;65.61
73383;BME280;61600;48.126;11.542;2024-01-11T12:41:52;96513.03;;;-0.42;65.71
73383;BME280;61600;48.126;11.542;2024-01-11T12:44:20;96510.94;;;-0.13;66.14
73383;BME280;61600;48.126;11.542;2024-01-11T12:46:48;96533.75;;;-0.17;65.85
73383;BME280;61600;48.126;11.542;2024-01-11T12:49:15;96517.16;;;-0.40;65.66
73383;BME280;61600;48.126;11.542;2024-01-11T12:51:43;96532.22;;;-0.32;67.37